Aeroporto :
LOGIN :

Iscrizione | Disclaimer

   EN    FR    IT 

 










Sommario :    VFR   VFR Marginale   IFR   IFR Intensivo   IFR Molto Intensivo
Visibilità : 
Base nubi : 
>= 8 km
>= 3000ft
5 / 8 km
1000 / 3000 ft
1500m / 5 km
500 / 1000 ft
800 / 1500m
200 / 500 ft
< 800m
< 200 ft
Simboli :   Temporali  Nebbia  Neve Forte  Precipitazioni Forti  Vento > 20 kt
SIGMETs :   Varie  Temporali  Ghiacco  Turbolenza  Onda orograficha  Ceneri Vulcaniche






- Altitudine del aeroporto : 231 ft
- Codice IATA : WTN


EGXW - RAF Waddington

ULTIMO METAR :
  • 112350Z AUTO 23013KT 9999 NCD 04/02 Q0996

METARs OBSOLETI :
  • 112250Z AUTO 25015KT 9999 FEW160/// 05/02 Q0996
  • 112150Z AUTO 24015KT 9999 BKN160/// SCT210/// 05/02 Q0996

TAF TAF EGXW
Valido dal 11 a 18 ore il 12 a 12 ore UTC


111647Z 1118/1212 27014KT 9999 SCT025
TEMPO 1118/1203 28016G27KT
PROB40
TEMPO 1118/1207 SCT020
TEMPO 1203/1209 23018G30KT
PROB40
TEMPO 1207/1210 7000 RA
PROB30
TEMPO 1207/1212 BKN008



MetMap, La meteo Aeronautica in un colpo d'occhio ! - Copyright ORBIFLY Dicembre 2007 - Disclaimer

ORBIFLY MET'MAP TEAM :

Programmazione e sviluppo : Alexandra Zaïnal
Concezione e sviluppo : Baudouin d'Aumeries
Co-Programmazione e sviluppo : Marc-Olivier Méhu
Supporto tecnico e logistico : Manuel Goepfert
Aiuto per la traduzione : Arnaldo La Scala

Contatto : metmap@orbifly.com




FONTI E CREDITI :

   NOAA